Time;durP1;ratioP1;P1;durP2;ratioP2;P2;SDS_P1;SDS_P2;PMS_P1;PMS_P2;Temp;Humidity;BMP_temperature;BMP_pressure;BME280_temperature;BME280_humidity;BME280_pressure;Samples;Min_cycle;Max_cycle;Signal;HPM_P1;HPM_P2
2023/05/04 00:03:00;;;;;;;;;;;;;;;6.53;35.74;98023.84;6299033;28;19927;-75
2023/05/04 00:06:01;;;;;;;;;;;;;;;6.63;36.25;98024.44;6298766;28;19920;-74
2023/05/04 00:09:05;;;;;;;;;;;;;;;6.67;36.27;98026.88;6298708;28;19920;-74
2023/05/04 00:12:09;;;;;;;;;;;;;;;6.64;36.59;98026.97;6298720;28;19958;-74
2023/05/04 00:15:12;;;;;;;;;;;;;;;6.55;36.60;98029.03;6298731;28;19920;-75
2023/05/04 00:18:13;;;;;;;;;;;;;;;6.47;36.86;98024.88;6298722;28;19920;-74
2023/05/04 00:21:17;;;;;;;;;;;;;;;6.46;35.81;98027.56;6298608;28;19963;-74
2023/05/04 00:24:22;;;;;;;;;;;;;;;6.52;36.45;98024.75;6298535;28;19924;-74
2023/05/04 00:27:25;;;;;;;;;;;;;;;6.44;36.61;98030.19;6298360;28;19924;-75
2023/05/04 00:30:26;;;;;;;;;;;;;;;6.52;36.43;98027.38;6297762;28;19924;-74
2023/05/04 00:33:31;;;;;;;;;;;;;;;6.46;36.65;98023.19;6298171;28;19920;-74
2023/05/04 00:36:36;;;;;;;;;;;;;;;6.40;36.93;98028.59;6298167;28;20017;-74
2023/05/04 00:39:37;;;;;;;;;;;;;;;6.45;36.87;98017.97;6297620;28;19920;-74
2023/05/04 00:42:41;;;;;;;;;;;;;;;6.45;35.96;98020.59;6298142;28;20404;-74
2023/05/04 00:45:45;;;;;;;;;;;;;;;6.44;36.49;98024.13;6297960;28;19920;-74
2023/05/04 00:48:48;;;;;;;;;;;;;;;6.51;36.58;98028.25;6296876;28;19920;-75
2023/05/04 00:51:52;;;;;;;;;;;;;;;6.52;36.67;98027.38;6297978;28;19920;-73
2023/05/04 00:54:53;;;;;;;;;;;;;;;6.49;36.59;98028.31;6297737;28;19920;-74
2023/05/04 00:57:58;;;;;;;;;;;;;;;6.47;36.41;98030.09;6297301;28;20037;-74
2023/05/04 01:00:59;;;;;;;;;;;;;;;6.54;36.57;98030.81;6297105;28;20390;-74
2023/05/04 01:04:03;;;;;;;;;;;;;;;6.54;36.19;98030.81;6297531;28;19927;-74
2023/05/04 01:07:04;;;;;;;;;;;;;;;6.70;36.59;98031.16;6297473;28;20352;-74
2023/05/04 01:10:05;;;;;;;;;;;;;;;6.79;36.31;98040.50;6296596;28;19920;-75
2023/05/04 01:13:14;;;;;;;;;;;;;;;6.86;36.21;98034.19;6296061;28;19943;-74
2023/05/04 01:16:21;;;;;;;;;;;;;;;6.98;35.88;98036.41;6296972;28;19928;-74
2023/05/04 01:19:26;;;;;;;;;;;;;;;7.01;35.52;98041.53;6297311;28;20016;-74
2023/05/04 01:22:30;;;;;;;;;;;;;;;7.11;35.81;98032.50;6297022;28;19916;-74
2023/05/04 01:25:41;;;;;;;;;;;;;;;7.21;35.10;98038.25;6297011;28;20409;-74
2023/05/04 01:28:48;;;;;;;;;;;;;;;7.25;35.19;98039.91;6296894;28;19920;-74
2023/05/04 01:31:54;;;;;;;;;;;;;;;7.65;35.01;98044.63;6296026;28;19920;-75
2023/05/04 01:34:59;;;;;;;;;;;;;;;7.51;35.06;98046.88;6297186;28;19920;-74
2023/05/04 01:38:02;;;;;;;;;;;;;;;7.50;35.13;98045.19;6297045;28;19920;-74
2023/05/04 01:41:03;;;;;;;;;;;;;;;7.49;34.73;98043.44;6296964;28;20370;-75
2023/05/04 01:44:04;;;;;;;;;;;;;;;7.50;35.12;98042.56;6295760;28;19920;-73
2023/05/04 01:47:08;;;;;;;;;;;;;;;7.54;34.86;98048.53;6296447;28;20382;-74
2023/05/04 01:50:09;;;;;;;;;;;;;;;7.58;34.82;98048.38;6295406;28;19917;-74
2023/05/04 01:53:14;;;;;;;;;;;;;;;7.63;34.37;98043.84;6296506;28;19920;-73
2023/05/04 01:56:18;;;;;;;;;;;;;;;7.86;34.54;98042.19;6295513;28;19916;-74
2023/05/04 01:59:21;;;;;;;;;;;;;;;7.81;34.51;98044.97;6295988;28;20261;-75
2023/05/04 02:02:22;;;;;;;;;;;;;;;7.93;34.28;98043.69;6295504;28;20014;-75
2023/05/04 02:05:26;;;;;;;;;;;;;;;7.95;34.39;98047.09;6295595;28;19920;-75
2023/05/04 02:08:29;;;;;;;;;;;;;;;7.96;34.12;98054.06;6294743;28;20286;-75
2023/05/04 02:11:30;;;;;;;;;;;;;;;7.97;34.25;98050.50;6295506;28;20096;-74
2023/05/04 02:14:31;;;;;;;;;;;;;;;7.99;34.24;98048.69;6294012;28;19920;-74
2023/05/04 02:17:32;;;;;;;;;;;;;;;8.03;34.36;98047.66;6295682;28;19943;-74
2023/05/04 02:20:33;;;;;;;;;;;;;;;8.10;34.08;98046.56;6295258;28;20305;-75
2023/05/04 02:23:37;;;;;;;;;;;;;;;8.15;34.31;98053.38;6295698;28;19920;-74
2023/05/04 02:26:38;;;;;;;;;;;;;;;8.21;34.12;98053.16;6294861;28;19928;-74
2023/05/04 02:29:41;;;;;;;;;;;;;;;8.25;34.13;98049.53;6295383;28;19920;-74
2023/05/04 02:32:47;;;;;;;;;;;;;;;8.34;33.65;98051.81;6295419;28;19928;-75
2023/05/04 02:35:47;;;;;;;;;;;;;;;8.63;33.84;98052.50;6294558;28;19920;-75
2023/05/04 02:38:51;;;;;;;;;;;;;;;8.84;33.78;98054.31;6295275;28;20302;-75
2023/05/04 02:41:55;;;;;;;;;;;;;;;8.88;33.87;98063.75;6294926;28;19931;-74
2023/05/04 02:44:57;;;;;;;;;;;;;;;9.05;33.91;98062.25;6294952;28;19920;-74
2023/05/04 02:47:58;;;;;;;;;;;;;;;9.33;34.16;98062.00;6294165;28;19924;-75
2023/05/04 02:51:02;;;;;;;;;;;;;;;9.28;33.76;98064.81;6295054;28;19919;-74
2023/05/04 02:54:07;;;;;;;;;;;;;;;9.28;33.76;98059.53;6294952;28;20381;-74
2023/05/04 02:57:14;;;;;;;;;;;;;;;9.40;33.80;98059.06;6294753;28;19950;-74
2023/05/04 03:00:15;;;;;;;;;;;;;;;9.79;33.84;98066.16;6293760;28;20365;-74
2023/05/04 03:03:18;;;;;;;;;;;;;;;9.63;33.98;98065.13;6294072;28;19920;-74
2023/05/04 03:06:19;;;;;;;;;;;;;;;9.69;34.08;98064.03;6294920;28;19921;-75
2023/05/04 03:09:22;;;;;;;;;;;;;;;9.66;33.77;98070.25;6294210;28;20402;-74
2023/05/04 03:12:26;;;;;;;;;;;;;;;9.95;33.71;98066.38;6294181;28;19946;-75
2023/05/04 03:15:32;;;;;;;;;;;;;;;10.08;33.76;98061.47;6294609;28;19920;-74
2023/05/04 03:18:33;;;;;;;;;;;;;;;10.15;33.66;98064.66;6293661;28;20415;-75
2023/05/04 03:21:37;;;;;;;;;;;;;;;10.28;33.30;98064.09;6293573;28;19968;-74
2023/05/04 03:24:43;;;;;;;;;;;;;;;10.27;33.27;98065.00;6294740;28;19963;-74
2023/05/04 03:27:46;;;;;;;;;;;;;;;10.42;33.05;98065.25;6298090;28;19920;-75
2023/05/04 03:30:47;;;;;;;;;;;;;;;10.54;32.57;98062.91;6299336;28;20820;-73
2023/05/04 03:33:50;;;;;;;;;;;;;;;10.84;31.51;98061.53;6299722;28;20062;-74
2023/05/04 03:36:52;;;;;;;;;;;;;;;11.04;30.26;98065.88;6299824;28;19947;-74
2023/05/04 03:39:55;;;;;;;;;;;;;;;11.20;29.80;98067.69;6281402;28;19923;-74
2023/05/04 03:42:59;;;;;;;;;;;;;;;11.38;29.40;98073.00;6297536;28;19920;-75
2023/05/04 03:46:00;;;;;;;;;;;;;;;11.57;28.38;98076.44;6298535;28;19926;-74
2023/05/04 03:49:02;;;;;;;;;;;;;;;11.88;27.71;98074.94;6298657;28;19947;-74
2023/05/04 03:52:03;;;;;;;;;;;;;;;11.98;27.36;98068.25;6298529;28;20329;-74
2023/05/04 03:55:04;;;;;;;;;;;;;;;12.18;26.90;98069.03;6298966;28;20326;-74
2023/05/04 03:58:10;;;;;;;;;;;;;;;12.25;26.54;98070.38;6298782;28;19920;-75
2023/05/04 04:01:14;;;;;;;;;;;;;;;12.28;26.56;98070.22;6298950;28;19921;-73
2023/05/04 04:04:15;;;;;;;;;;;;;;;12.26;26.89;98072.97;6297876;28;19921;-75
2023/05/04 04:07:18;;;;;;;;;;;;;;;12.50;26.31;98076.06;6297883;28;19943;-74
2023/05/04 04:10:19;;;;;;;;;;;;;;;12.62;25.87;98068.44;6298414;28;19924;-75
2023/05/04 04:13:21;;;;;;;;;;;;;;;12.64;26.21;98066.56;6297686;28;19927;-75
2023/05/04 04:16:27;;;;;;;;;;;;;;;12.73;26.22;98082.75;6298597;28;19920;-74
2023/05/04 04:19:30;;;;;;;;;;;;;;;12.91;25.89;98065.06;6298017;28;20419;-75
2023/05/04 04:22:34;;;;;;;;;;;;;;;13.02;25.80;98080.31;6298300;28;19920;-74
2023/05/04 04:25:37;;;;;;;;;;;;;;;13.07;25.79;98074.78;6297120;28;19920;-75
2023/05/04 04:28:38;;;;;;;;;;;;;;;13.28;25.56;98075.41;6297202;28;19920;-75
2023/05/04 04:31:39;;;;;;;;;;;;;;;13.66;24.77;98075.84;6297519;28;20532;-73
2023/05/04 04:34:43;;;;;;;;;;;;;;;13.51;25.38;98074.09;6297585;28;19920;-74
2023/05/04 04:37:44;;;;;;;;;;;;;;;13.83;24.93;98067.75;6296251;28;19920;-74
2023/05/04 04:40:48;;;;;;;;;;;;;;;14.24;24.41;98074.16;6297344;28;19931;-74
2023/05/04 04:43:51;;;;;;;;;;;;;;;15.37;23.29;98074.16;6298104;28;19931;-73
2023/05/04 04:46:55;;;;;;;;;;;;;;;19.73;20.60;98078.38;6296932;28;20515;-73
2023/05/04 04:49:58;;;;;;;;;;;;;;;24.24;16.48;98078.91;6280097;28;20351;-74
2023/05/04 04:52:59;;;;;;;;;;;;;;;27.10;13.48;98092.25;6297115;28;19920;-74
2023/05/04 04:56:03;;;;;;;;;;;;;;;29.56;12.15;98087.53;6297220;28;19920;-74
2023/05/04 04:59:04;;;;;;;;;;;;;;;32.02;11.67;98087.44;6296815;28;19935;-73
2023/05/04 05:02:05;;;;;;;;;;;;;;;33.77;9.43;98085.06;6296671;28;20394;-74
2023/05/04 05:05:11;;;;;;;;;;;;;;;35.00;10.15;98083.75;6297266;28;19920;-72
2023/05/04 05:08:12;;;;;;;;;;;;;;;36.16;8.08;98092.84;6296063;28;19921;-74
2023/05/04 05:11:17;;;;;;;;;;;;;;;36.31;7.45;98086.94;6297230;28;19916;-75
2023/05/04 05:14:21;;;;;;;;;;;;;;;36.91;5.82;98092.22;6297043;28;19920;-74
2023/05/04 05:17:25;;;;;;;;;;;;;;;36.06;5.92;98071.50;6297192;28;19920;-74
2023/05/04 05:20:32;;;;;;;;;;;;;;;35.67;6.15;98081.94;6297268;28;19920;-73
2023/05/04 05:23:35;;;;;;;;;;;;;;;35.85;6.14;98086.53;6297066;28;20417;-73
2023/05/04 05:26:36;;;;;;;;;;;;;;;35.82;6.28;98080.69;6296687;28;19920;-74
2023/05/04 05:29:37;;;;;;;;;;;;;;;36.02;6.33;98086.72;6295695;28;19920;-73
2023/05/04 05:32:41;;;;;;;;;;;;;;;35.81;5.46;98081.75;6296364;28;20019;-74
2023/05/04 05:35:44;;;;;;;;;;;;;;;34.71;6.21;98067.00;6296260;28;19920;-74
2023/05/04 05:38:45;;;;;;;;;;;;;;;34.91;6.09;98085.09;6296084;28;19928;-74
2023/05/04 05:41:46;;;;;;;;;;;;;;;34.46;6.24;98077.09;6296091;28;19920;-73
2023/05/04 05:44:52;;;;;;;;;;;;;;;34.96;6.01;98079.78;6296454;28;19952;-73
2023/05/04 05:47:53;;;;;;;;;;;;;;;34.94;6.16;98068.25;6295230;28;19920;-73
2023/05/04 05:50:55;;;;;;;;;;;;;;;35.28;6.24;98070.41;6295113;28;20305;-73
2023/05/04 05:54:00;;;;;;;;;;;;;;;36.22;5.74;98077.38;6296350;28;20328;-74
2023/05/04 05:57:04;;;;;;;;;;;;;;;36.99;5.12;98080.06;6296254;28;19917;-73
2023/05/04 06:00:08;;;;;;;;;;;;;;;36.88;5.22;98089.16;6296285;28;20251;-74
2023/05/04 06:03:11;;;;;;;;;;;;;;;37.40;5.22;98081.81;6294447;28;19916;-73
2023/05/04 06:06:16;;;;;;;;;;;;;;;36.99;4.90;98063.63;6277742;28;20018;-73
2023/05/04 06:09:17;;;;;;;;;;;;;;;37.74;4.38;98087.47;6295305;28;19927;-73
2023/05/04 06:12:18;;;;;;;;;;;;;;;37.62;4.79;98076.50;6294171;28;19920;-73
2023/05/04 06:15:20;;;;;;;;;;;;;;;37.90;4.53;98072.94;6294581;28;20015;-73
2023/05/04 06:18:21;;;;;;;;;;;;;;;37.69;4.52;98101.09;6294938;28;20057;-74
2023/05/04 06:21:25;;;;;;;;;;;;;;;36.93;4.55;98072.81;6277722;28;20020;-74
2023/05/04 06:24:30;;;;;;;;;;;;;;;36.77;4.84;98063.38;6295258;28;20333;-74
2023/05/04 06:27:31;;;;;;;;;;;;;;;37.62;4.75;98089.41;6294426;28;19920;-74
2023/05/04 06:30:32;;;;;;;;;;;;;;;37.59;4.41;98057.78;6294664;28;19919;-74
2023/05/04 06:33:33;;;;;;;;;;;;;;;37.15;4.25;98062.09;6295087;28;20286;-74
2023/05/04 06:36:37;;;;;;;;;;;;;;;37.32;4.16;98068.47;6295235;28;19920;-74
2023/05/04 06:39:39;;;;;;;;;;;;;;;38.01;4.31;98087.72;6294589;28;19997;-74
2023/05/04 06:42:44;;;;;;;;;;;;;;;37.65;4.75;98066.94;6295404;28;19920;-74
2023/05/04 06:45:50;;;;;;;;;;;;;;;38.83;4.18;98067.94;6294531;28;20301;-73
2023/05/04 06:48:54;;;;;;;;;;;;;;;38.92;4.17;98053.78;6277119;28;20065;-74
2023/05/04 06:52:01;;;;;;;;;;;;;;;39.70;3.59;98071.88;6295145;28;19922;-73
2023/05/04 06:55:06;;;;;;;;;;;;;;;39.44;3.70;98045.13;6294857;28;19920;-74
2023/05/04 06:58:09;;;;;;;;;;;;;;;39.26;3.97;98077.34;6294703;28;19923;-74
2023/05/04 07:01:11;;;;;;;;;;;;;;;38.88;4.28;98047.94;6276275;28;20023;-74
2023/05/04 07:04:12;;;;;;;;;;;;;;;39.48;3.50;98057.28;6293859;28;20356;-74
2023/05/04 07:07:15;;;;;;;;;;;;;;;39.03;4.05;98044.56;6294062;28;19927;-75
2023/05/04 07:10:18;;;;;;;;;;;;;;;38.94;3.96;98032.34;6294081;28;19927;-74
2023/05/04 07:13:21;;;;;;;;;;;;;;;39.23;3.90;98049.50;6293256;28;19924;-73
2023/05/04 07:16:23;;;;;;;;;;;;;;;38.77;4.02;98071.69;6293423;28;19920;-74
2023/05/04 07:19:26;;;;;;;;;;;;;;;37.56;4.37;98040.97;6275983;28;19928;-74
2023/05/04 07:22:30;;;;;;;;;;;;;;;37.83;3.81;98053.03;6293781;28;19920;-74
2023/05/04 07:25:36;;;;;;;;;;;;;;;37.78;4.31;98044.69;6294665;28;19920;-74
2023/05/04 07:28:42;;;;;;;;;;;;;;;38.23;4.08;98045.78;6293659;28;19920;-74
2023/05/04 07:31:43;;;;;;;;;;;;;;;38.24;3.93;98051.03;6276291;28;20019;-73
2023/05/04 07:34:45;;;;;;;;;;;;;;;37.64;4.43;98051.56;6293677;28;20305;-74
2023/05/04 07:37:47;;;;;;;;;;;;;;;37.73;4.16;98026.19;6294081;28;19963;-74
2023/05/04 07:40:50;;;;;;;;;;;;;;;38.43;4.30;98026.91;6294616;28;19920;-74
2023/05/04 07:43:54;;;;;;;;;;;;;;;38.33;3.89;98026.69;6294591;28;19920;-74
2023/05/04 07:46:58;;;;;;;;;;;;;;;38.04;3.85;98031.44;6294389;28;19920;-73
2023/05/04 07:49:59;;;;;;;;;;;;;;;38.88;3.97;98036.13;6293513;28;19920;-73
2023/05/04 07:53:02;;;;;;;;;;;;;;;39.05;3.70;98029.47;6294411;28;19916;-75
2023/05/04 07:56:08;;;;;;;;;;;;;;;38.95;3.57;98015.56;6294240;28;19920;-74
2023/05/04 07:59:09;;;;;;;;;;;;;;;39.12;3.56;98025.69;6294303;28;19927;-73
2023/05/04 08:02:13;;;;;;;;;;;;;;;39.70;3.63;98015.94;6294262;28;19942;-74
2023/05/04 08:05:16;;;;;;;;;;;;;;;38.61;4.03;98020.28;6294131;28;19920;-74
2023/05/04 08:08:18;;;;;;;;;;;;;;;38.72;4.42;98011.09;6293315;28;19920;-74
2023/05/04 08:11:19;;;;;;;;;;;;;;;39.73;3.60;98027.25;6293519;28;19920;-74
2023/05/04 08:14:23;;;;;;;;;;;;;;;39.29;3.61;98021.81;6298009;28;20003;-73
2023/05/04 08:17:24;;;;;;;;;;;;;;;38.80;3.87;98018.91;6297497;28;19964;-73
2023/05/04 08:20:25;;;;;;;;;;;;;;;39.12;3.86;98015.50;6298045;28;20011;-75
2023/05/04 08:23:29;;;;;;;;;;;;;;;38.54;4.15;98009.47;6298292;28;19921;-73
2023/05/04 08:26:33;;;;;;;;;;;;;;;38.08;4.16;98010.66;6297398;28;20022;-73
2023/05/04 08:29:36;;;;;;;;;;;;;;;39.28;3.85;98014.63;6298936;28;19920;-74
2023/05/04 08:32:41;;;;;;;;;;;;;;;39.10;3.96;98006.69;6298610;28;19920;-73
2023/05/04 08:35:44;;;;;;;;;;;;;;;38.90;4.02;97998.16;6298516;28;19921;-73
2023/05/04 08:38:49;;;;;;;;;;;;;;;38.49;4.55;98019.56;6280784;28;19968;-74
2023/05/04 08:41:55;;;;;;;;;;;;;;;37.89;4.62;98002.59;6297859;28;19924;-75
2023/05/04 08:44:57;;;;;;;;;;;;;;;38.27;4.57;97998.28;6279192;28;20461;-74
2023/05/04 08:48:00;;;;;;;;;;;;;;;38.40;4.77;98006.22;6297282;28;19927;-74
2023/05/04 08:51:05;;;;;;;;;;;;;;;37.63;4.74;98000.47;6297391;28;20352;-74
2023/05/04 08:54:12;;;;;;;;;;;;;;;37.56;4.41;97989.63;6297637;28;19920;-74
2023/05/04 08:57:16;;;;;;;;;;;;;;;37.70;4.42;98007.47;6297599;28;20003;-73
2023/05/04 09:00:18;;;;;;;;;;;;;;;36.31;5.11;97991.00;6296777;28;19927;-73
2023/05/04 09:03:22;;;;;;;;;;;;;;;35.71;4.88;97992.78;6279435;28;20293;-74
2023/05/04 09:06:26;;;;;;;;;;;;;;;35.95;4.77;97993.69;6297038;28;19924;-73
2023/05/04 09:09:27;;;;;;;;;;;;;;;35.63;4.98;97979.44;6296369;28;19927;-75
2023/05/04 09:12:28;;;;;;;;;;;;;;;36.32;5.20;97965.25;6296242;28;20337;-74
2023/05/04 09:15:32;;;;;;;;;;;;;;;36.09;5.13;97982.53;6297280;28;19920;-75
2023/05/04 09:18:37;;;;;;;;;;;;;;;36.05;4.87;97990.38;6296857;28;19920;-74
2023/05/04 09:21:38;;;;;;;;;;;;;;;35.74;4.87;97986.84;6278495;28;19920;-74
2023/05/04 09:24:39;;;;;;;;;;;;;;;35.02;4.76;97969.50;6295838;28;19927;-74
2023/05/04 09:27:51;;;;;;;;;;;;;;;34.70;5.12;97969.63;6296910;28;19920;-75
2023/05/04 09:30:58;;;;;;;;;;;;;;;34.47;5.13;97975.72;6296053;28;19943;-74
2023/05/04 09:34:08;;;;;;;;;;;;;;;34.22;5.35;97964.84;6296769;28;19920;-74
2023/05/04 09:37:09;;;;;;;;;;;;;;;34.59;5.33;97957.56;6295937;28;19927;-74
2023/05/04 09:40:13;;;;;;;;;;;;;;;34.95;5.11;97969.56;6296461;28;19921;-75
2023/05/04 09:43:14;;;;;;;;;;;;;;;34.15;5.25;97966.81;6296401;28;20065;-73
2023/05/04 09:46:19;;;;;;;;;;;;;;;34.17;5.36;97964.69;6295814;28;20102;-75
2023/05/04 09:49:34;;;;;;;;;;;;;;;34.07;5.49;97967.09;6295756;28;20297;-73
2023/05/04 09:52:39;;;;;;;;;;;;;;;33.99;5.31;97974.44;6296354;28;19916;-74
2023/05/04 09:55:45;;;;;;;;;;;;;;;33.66;5.49;98006.63;6295695;28;19920;-74
2023/05/04 09:58:49;;;;;;;;;;;;;;;33.33;5.74;97974.88;6295572;28;19916;-74
2023/05/04 10:01:53;;;;;;;;;;;;;;;33.32;6.00;97973.22;6296247;28;19920;-75
2023/05/04 10:04:57;;;;;;;;;;;;;;;33.34;6.10;97970.25;6295800;28;19916;-73
2023/05/04 10:07:59;;;;;;;;;;;;;;;33.57;5.98;97975.19;6295363;28;20417;-73
2023/05/04 10:11:02;;;;;;;;;;;;;;;32.67;5.97;97959.63;6295054;28;19920;-75
2023/05/04 10:14:07;;;;;;;;;;;;;;;32.64;5.78;97966.34;6295713;28;19924;-75
2023/05/04 10:17:26;;;;;;;;;;;;;;;32.75;5.92;97983.91;6295769;28;19920;-74
2023/05/04 10:20:43;;;;;;;;;;;;;;;32.11;6.35;97955.50;6295362;28;19920;-75
2023/05/04 10:23:47;;;;;;;;;;;;;;;31.47;6.54;97939.75;6295580;28;19931;-74
2023/05/04 10:27:02;;;;;;;;;;;;;;;31.60;6.39;97941.66;6295576;28;19920;-75
2023/05/04 10:30:03;;;;;;;;;;;;;;;31.88;6.74;97971.41;6294779;28;20046;-74
2023/05/04 10:33:04;;;;;;;;;;;;;;;30.63;6.88;97957.16;6294742;28;19925;-74
2023/05/04 10:36:09;;;;;;;;;;;;;;;30.05;7.53;97953.84;6295055;28;19920;-75
2023/05/04 10:39:19;;;;;;;;;;;;;;;30.38;7.45;97938.66;6276841;28;19959;-74
2023/05/04 10:42:23;;;;;;;;;;;;;;;29.92;7.65;97950.00;6294263;28;20011;-75
2023/05/04 10:45:37;;;;;;;;;;;;;;;29.02;8.24;97954.03;6294740;28;20030;-74
2023/05/04 10:48:38;;;;;;;;;;;;;;;27.97;8.59;97941.50;6294350;28;19943;-75
2023/05/04 10:51:39;;;;;;;;;;;;;;;28.42;8.52;97957.81;6294343;28;19944;-74
2023/05/04 10:54:45;;;;;;;;;;;;;;;28.63;8.05;97933.53;6294996;28;20417;-75
2023/05/04 10:57:52;;;;;;;;;;;;;;;28.89;8.00;97951.16;6294220;28;19921;-74
2023/05/04 11:00:56;;;;;;;;;;;;;;;28.51;8.38;97948.59;6294943;28;20331;-74
2023/05/04 11:03:57;;;;;;;;;;;;;;;27.82;8.83;97931.69;6294387;28;19927;-73
2023/05/04 11:07:07;;;;;;;;;;;;;;;27.71;8.68;97939.19;6293879;28;19960;-74
2023/05/04 11:10:23;;;;;;;;;;;;;;;27.43;8.88;97962.38;6295057;28;19920;-73
2023/05/04 11:13:28;;;;;;;;;;;;;;;27.35;9.06;97932.72;6294685;28;19920;-74
2023/05/04 11:16:29;;;;;;;;;;;;;;;27.96;8.87;97926.28;6275678;28;20034;-74
2023/05/04 11:19:31;;;;;;;;;;;;;;;28.05;9.05;97924.34;6294165;28;19921;-75
2023/05/04 11:22:35;;;;;;;;;;;;;;;27.68;9.07;97927.88;6294742;28;19908;-75
2023/05/04 11:25:40;;;;;;;;;;;;;;;27.40;9.21;97924.88;6294496;28;19920;-74
2023/05/04 11:28:44;;;;;;;;;;;;;;;27.46;9.17;97926.88;6294376;28;19920;-75
2023/05/04 11:31:54;;;;;;;;;;;;;;;27.16;9.53;97928.63;6294653;28;19920;-73
2023/05/04 11:34:55;;;;;;;;;;;;;;;26.94;9.49;97911.31;6293838;28;19920;-74
2023/05/04 11:37:58;;;;;;;;;;;;;;;27.40;9.42;97939.25;6294138;28;20429;-76
2023/05/04 11:41:04;;;;;;;;;;;;;;;26.82;9.71;97933.34;6294542;28;19920;-74
2023/05/04 11:44:10;;;;;;;;;;;;;;;26.16;9.93;97921.09;6294300;28;19924;-74
2023/05/04 11:47:12;;;;;;;;;;;;;;;26.00;10.37;97907.63;6294357;28;20014;-75
2023/05/04 11:50:16;;;;;;;;;;;;;;;25.44;10.83;97904.78;6299131;28;19920;-75
2023/05/04 11:53:23;;;;;;;;;;;;;;;25.48;10.77;97896.19;6299142;28;19920;-75
2023/05/04 11:56:26;;;;;;;;;;;;;;;25.49;10.72;97914.03;6280547;28;20017;-76
2023/05/04 11:59:30;;;;;;;;;;;;;;;25.19;10.63;97912.00;6298536;28;19920;-75
2023/05/04 12:02:34;;;;;;;;;;;;;;;24.80;11.10;97907.19;6299122;28;20378;-72
2023/05/04 12:05:38;;;;;;;;;;;;;;;25.10;10.97;97920.03;6298666;28;20433;-75
2023/05/04 12:08:42;;;;;;;;;;;;;;;24.86;11.00;97906.53;6297958;28;19920;-74
2023/05/04 12:11:52;;;;;;;;;;;;;;;24.89;11.33;97906.19;6298582;28;19920;-75
2023/05/04 12:14:58;;;;;;;;;;;;;;;24.83;11.34;97902.31;6298299;28;19920;-75
2023/05/04 12:18:03;;;;;;;;;;;;;;;24.91;11.46;97896.13;6298455;28;19986;-76
2023/05/04 12:21:11;;;;;;;;;;;;;;;25.36;11.00;97886.75;6297361;28;20309;-75
2023/05/04 12:24:18;;;;;;;;;;;;;;;25.40;10.58;97898.88;6298073;28;19926;-75
2023/05/04 12:27:23;;;;;;;;;;;;;;;25.29;10.24;97897.38;6297766;28;20015;-75
2023/05/04 12:30:26;;;;;;;;;;;;;;;25.02;10.48;97900.31;6298021;28;20289;-75
2023/05/04 12:33:27;;;;;;;;;;;;;;;24.37;10.74;97900.94;6297999;28;19994;-75
2023/05/04 12:36:51;;;;;;;;;;;;;;;24.84;10.55;97901.31;6295462;28;19920;-74
2023/05/04 12:39:57;;;;;;;;;;;;;;;24.79;10.98;97898.25;6297524;28;20309;-74
2023/05/04 12:42:58;;;;;;;;;;;;;;;24.75;11.09;97898.75;6297053;28;19991;-74
2023/05/04 12:45:59;;;;;;;;;;;;;;;24.45;11.35;97889.41;6297176;28;20063;-74
2023/05/04 12:49:00;;;;;;;;;;;;;;;24.35;11.42;97897.59;6296644;28;19974;-76
2023/05/04 12:52:04;;;;;;;;;;;;;;;23.93;11.56;97893.00;6296366;28;19927;-75
2023/05/04 12:55:08;;;;;;;;;;;;;;;23.86;11.72;97886.53;6297182;28;19920;-75
2023/05/04 12:58:09;;;;;;;;;;;;;;;23.40;12.02;97888.53;6295855;28;19935;-76
2023/05/04 13:01:10;;;;;;;;;;;;;;;23.17;11.96;97880.13;6296766;28;19927;-73
2023/05/04 13:04:11;;;;;;;;;;;;;;;22.66;12.45;97874.38;6297244;28;19921;-75
2023/05/04 13:07:18;;;;;;;;;;;;;;;22.54;12.62;97883.66;6297054;28;19924;-75
2023/05/04 13:10:20;;;;;;;;;;;;;;;22.50;12.63;97882.25;6296207;28;19920;-75
2023/05/04 13:13:25;;;;;;;;;;;;;;;22.04;12.91;97873.28;6296598;28;20503;-76
2023/05/04 13:16:26;;;;;;;;;;;;;;;22.12;12.40;97894.81;6296384;28;20253;-75
2023/05/04 13:19:30;;;;;;;;;;;;;;;21.82;12.50;97879.81;6297116;28;19928;-74
2023/05/04 13:22:35;;;;;;;;;;;;;;;21.74;12.63;97875.22;6295943;28;19924;-74
2023/05/04 13:25:39;;;;;;;;;;;;;;;21.38;13.14;97875.00;6296549;28;20289;-75
2023/05/04 13:28:40;;;;;;;;;;;;;;;21.41;13.25;97869.34;6295418;28;19920;-75
2023/05/04 13:31:43;;;;;;;;;;;;;;;21.23;13.09;97865.66;6296557;28;19920;-74
2023/05/04 13:34:47;;;;;;;;;;;;;;;21.16;13.65;97864.56;6295511;28;19926;-74
2023/05/04 13:37:50;;;;;;;;;;;;;;;21.09;13.53;97875.00;6295675;28;19916;-75
2023/05/04 13:40:53;;;;;;;;;;;;;;;21.01;13.81;97873.00;6295478;28;20019;-75
2023/05/04 13:43:56;;;;;;;;;;;;;;;20.88;13.82;97866.25;6295721;28;19924;-76
2023/05/04 13:47:00;;;;;;;;;;;;;;;20.61;14.23;97870.44;6278560;28;20337;-75
2023/05/04 13:50:10;;;;;;;;;;;;;;;20.66;14.41;97867.34;6296441;28;20405;-74
2023/05/04 13:53:11;;;;;;;;;;;;;;;20.62;14.49;97872.97;6295982;28;20306;-75
2023/05/04 13:56:14;;;;;;;;;;;;;;;20.45;14.32;97864.75;6296297;28;19920;-75
2023/05/04 13:59:15;;;;;;;;;;;;;;;20.39;14.31;97868.81;6294836;28;20417;-75
2023/05/04 14:02:22;;;;;;;;;;;;;;;20.12;14.73;97880.94;6296012;28;19920;-75
2023/05/04 14:05:25;;;;;;;;;;;;;;;20.22;14.75;97875.66;6295391;28;20278;-75
2023/05/04 14:08:27;;;;;;;;;;;;;;;20.34;14.74;97879.06;6295090;28;19927;-75
2023/05/04 14:11:30;;;;;;;;;;;;;;;20.28;15.11;97884.94;6294927;28;20080;-75
2023/05/04 14:14:31;;;;;;;;;;;;;;;20.44;15.06;97879.94;6295657;28;19920;-75
2023/05/04 14:17:35;;;;;;;;;;;;;;;20.46;14.86;97871.78;6295150;28;19927;-75
2023/05/04 14:20:38;;;;;;;;;;;;;;;20.41;14.63;97878.38;6295622;28;19966;-74
2023/05/04 14:23:43;;;;;;;;;;;;;;;20.63;14.41;97871.97;6295340;28;19920;-74
2023/05/04 14:26:44;;;;;;;;;;;;;;;20.54;14.52;97883.50;6294546;28;19920;-74
2023/05/04 14:29:47;;;;;;;;;;;;;;;20.35;14.52;97880.72;6294565;28;19920;-74
2023/05/04 14:32:56;;;;;;;;;;;;;;;20.19;14.48;97874.09;6295290;28;19920;-75
2023/05/04 14:35:57;;;;;;;;;;;;;;;20.03;14.51;97895.09;6276427;28;20014;-75
2023/05/04 14:39:02;;;;;;;;;;;;;;;20.17;14.42;97892.06;6295165;28;19920;-73
2023/05/04 14:42:05;;;;;;;;;;;;;;;20.06;14.65;97881.47;6295070;28;19924;-73
2023/05/04 14:45:09;;;;;;;;;;;;;;;19.99;14.66;97884.84;6295030;28;19920;-74
2023/05/04 14:48:15;;;;;;;;;;;;;;;19.85;14.61;97883.38;6294841;28;19920;-74
2023/05/04 14:51:22;;;;;;;;;;;;;;;19.87;14.85;97892.06;6294050;28;20401;-74
2023/05/04 14:54:26;;;;;;;;;;;;;;;19.72;15.37;97884.41;6295079;28;20427;-76
2023/05/04 14:57:30;;;;;;;;;;;;;;;19.62;15.47;97878.16;6294929;28;19920;-75
2023/05/04 15:00:34;;;;;;;;;;;;;;;19.21;15.96;97887.00;6294780;28;19916;-74
2023/05/04 15:03:38;;;;;;;;;;;;;;;19.02;16.28;97887.66;6294675;28;20299;-77
2023/05/04 15:06:39;;;;;;;;;;;;;;;18.86;16.15;97895.28;6294050;28;19920;-76
2023/05/04 15:09:41;;;;;;;;;;;;;;;18.96;16.49;97885.53;6293277;28;20031;-75
2023/05/04 15:12:44;;;;;;;;;;;;;;;18.77;16.71;97886.22;6294534;28;19927;-75
2023/05/04 15:15:47;;;;;;;;;;;;;;;18.48;16.82;97891.19;6294064;28;19920;-75
2023/05/04 15:18:50;;;;;;;;;;;;;;;18.44;16.87;97889.75;6293956;28;19924;-75
2023/05/04 15:21:54;;;;;;;;;;;;;;;18.30;16.94;97893.53;6298333;28;19920;-75
2023/05/04 15:24:56;;;;;;;;;;;;;;;18.09;17.20;97890.78;6301847;28;19916;-75
2023/05/04 15:28:03;;;;;;;;;;;;;;;18.00;17.20;97886.16;6302718;28;19920;-74
2023/05/04 15:31:07;;;;;;;;;;;;;;;17.64;17.55;97906.69;6301772;28;19927;-75
2023/05/04 15:34:10;;;;;;;;;;;;;;;17.60;17.90;97891.91;6302644;28;19921;-75
2023/05/04 15:37:11;;;;;;;;;;;;;;;17.47;18.08;97892.00;6302323;28;20449;-75
2023/05/04 15:40:16;;;;;;;;;;;;;;;17.35;18.08;97901.75;6303407;28;19920;-73
2023/05/04 15:43:20;;;;;;;;;;;;;;;17.17;18.17;97905.81;6303208;28;19924;-75
2023/05/04 15:46:26;;;;;;;;;;;;;;;17.13;18.30;97904.38;6284957;28;19920;-74
2023/05/04 15:49:27;;;;;;;;;;;;;;;16.96;18.47;97901.16;6302098;28;20298;-75
2023/05/04 15:52:31;;;;;;;;;;;;;;;16.96;18.63;97905.63;6302482;28;19920;-76
2023/05/04 15:55:32;;;;;;;;;;;;;;;16.73;18.58;97915.22;6301840;28;20030;-75
2023/05/04 15:58:35;;;;;;;;;;;;;;;16.50;19.06;97923.09;6302492;28;19924;-76
2023/05/04 16:01:38;;;;;;;;;;;;;;;16.24;19.23;97918.78;6301079;28;19932;-76
2023/05/04 16:04:42;;;;;;;;;;;;;;;16.31;19.25;97920.06;6302518;28;19920;-76